sensor_id;sensor_type;location;lat;lon;timestamp;pressure;altitude;pressure_sealevel;temperature;humidity
61361;BME280;47232;47.506;18.936;2022-12-07T00:01:07;98197.65;;;3.06;73.00
61361;BME280;47232;47.506;18.936;2022-12-07T00:03:37;98196.17;;;3.04;72.91
61361;BME280;47232;47.506;18.936;2022-12-07T00:06:06;98196.64;;;3.00;72.76
61361;BME280;47232;47.506;18.936;2022-12-07T00:08:32;98195.66;;;2.96;72.80
61361;BME280;47232;47.506;18.936;2022-12-07T00:11:19;98189.71;;;2.92;72.91
61361;BME280;47232;47.506;18.936;2022-12-07T00:13:53;98183.58;;;2.86;72.86
61361;BME280;47232;47.506;18.936;2022-12-07T00:16:21;98180.45;;;2.82;72.95
61361;BME280;47232;47.506;18.936;2022-12-07T00:18:47;98172.83;;;2.77;72.85
61361;BME280;47232;47.506;18.936;2022-12-07T00:21:15;98174.10;;;2.73;72.83
61361;BME280;47232;47.506;18.936;2022-12-07T00:23:43;98170.31;;;2.70;72.92
61361;BME280;47232;47.506;18.936;2022-12-07T00:29:02;98170.52;;;2.69;72.87
61361;BME280;47232;47.506;18.936;2022-12-07T00:31:32;98167.66;;;2.73;73.10
61361;BME280;47232;47.506;18.936;2022-12-07T00:33:59;98167.24;;;2.75;73.20
61361;BME280;47232;47.506;18.936;2022-12-07T00:36:25;98171.60;;;2.79;73.09
61361;BME280;47232;47.506;18.936;2022-12-07T00:38:50;98162.94;;;2.79;73.01
61361;BME280;47232;47.506;18.936;2022-12-07T00:41:18;98159.59;;;2.79;72.89
61361;BME280;47232;47.506;18.936;2022-12-07T00:43:46;98159.76;;;2.77;72.88
61361;BME280;47232;47.506;18.936;2022-12-07T00:46:15;98162.29;;;2.73;72.79
61361;BME280;47232;47.506;18.936;2022-12-07T00:48:44;98165.95;;;2.70;72.79
61361;BME280;47232;47.506;18.936;2022-12-07T00:51:12;98164.09;;;2.67;72.78
61361;BME280;47232;47.506;18.936;2022-12-07T00:53:38;98163.87;;;2.63;72.77
61361;BME280;47232;47.506;18.936;2022-12-07T00:56:08;98158.97;;;2.58;72.65
61361;BME280;47232;47.506;18.936;2022-12-07T00:58:34;98152.09;;;2.53;72.76
61361;BME280;47232;47.506;18.936;2022-12-07T01:01:01;98146.39;;;2.49;72.82
61361;BME280;47232;47.506;18.936;2022-12-07T01:03:27;98154.20;;;2.43;72.84
61361;BME280;47232;47.506;18.936;2022-12-07T01:05:54;98151.15;;;2.39;72.80
61361;BME280;47232;47.506;18.936;2022-12-07T01:08:21;98157.90;;;2.36;73.01
61361;BME280;47232;47.506;18.936;2022-12-07T01:10:47;98154.02;;;2.36;73.09
61361;BME280;47232;47.506;18.936;2022-12-07T01:13:13;98156.57;;;2.38;72.98
61361;BME280;47232;47.506;18.936;2022-12-07T01:15:40;98161.52;;;2.40;73.11
61361;BME280;47232;47.506;18.936;2022-12-07T01:18:06;98163.70;;;2.42;72.99
61361;BME280;47232;47.506;18.936;2022-12-07T01:20:31;98165.78;;;2.43;73.09
61361;BME280;47232;47.506;18.936;2022-12-07T01:22:56;98161.70;;;2.44;72.84
61361;BME280;47232;47.506;18.936;2022-12-07T01:25:22;98155.91;;;2.44;72.99
61361;BME280;47232;47.506;18.936;2022-12-07T01:27:47;98154.84;;;2.45;73.03
61361;BME280;47232;47.506;18.936;2022-12-07T01:30:13;98152.88;;;2.45;73.06
61361;BME280;47232;47.506;18.936;2022-12-07T01:32:38;98148.73;;;2.45;73.17
61361;BME280;47232;47.506;18.936;2022-12-07T01:35:04;98147.45;;;2.45;73.03
61361;BME280;47232;47.506;18.936;2022-12-07T01:37:34;98146.91;;;2.43;73.14
61361;BME280;47232;47.506;18.936;2022-12-07T01:40:01;98154.19;;;2.42;73.45
61361;BME280;47232;47.506;18.936;2022-12-07T01:42:28;98154.23;;;2.37;73.49
61361;BME280;47232;47.506;18.936;2022-12-07T01:47:50;98152.89;;;2.34;73.79
61361;BME280;47232;47.506;18.936;2022-12-07T01:50:17;98147.95;;;2.37;73.85
61361;BME280;47232;47.506;18.936;2022-12-07T01:52:44;98146.70;;;2.44;74.20
61361;BME280;47232;47.506;18.936;2022-12-07T01:55:13;98145.66;;;2.53;74.45
61361;BME280;47232;47.506;18.936;2022-12-07T01:57:43;98138.24;;;2.63;74.55
61361;BME280;47232;47.506;18.936;2022-12-07T02:00:11;98140.92;;;2.74;74.68
61361;BME280;47232;47.506;18.936;2022-12-07T02:02:41;98135.23;;;2.83;74.65
61361;BME280;47232;47.506;18.936;2022-12-07T02:05:09;98137.01;;;2.90;74.66
61361;BME280;47232;47.506;18.936;2022-12-07T02:07:36;98137.80;;;2.96;74.50
61361;BME280;47232;47.506;18.936;2022-12-07T02:10:27;98138.71;;;3.00;74.53
61361;BME280;47232;47.506;18.936;2022-12-07T02:13:06;98137.87;;;3.04;74.65
61361;BME280;47232;47.506;18.936;2022-12-07T02:32:13;98134.35;;;3.10;75.02
61361;BME280;47232;47.506;18.936;2022-12-07T02:35:04;98131.33;;;3.16;75.13
61361;BME280;47232;47.506;18.936;2022-12-07T02:40:18;98125.83;;;3.31;75.31
61361;BME280;47232;47.506;18.936;2022-12-07T02:42:53;98125.61;;;3.37;75.26
61361;BME280;47232;47.506;18.936;2022-12-07T02:45:22;98126.93;;;3.42;75.27
61361;BME280;47232;47.506;18.936;2022-12-07T02:47:52;98125.17;;;3.47;75.26
61361;BME280;47232;47.506;18.936;2022-12-07T02:50:21;98129.31;;;3.51;75.42
61361;BME280;47232;47.506;18.936;2022-12-07T02:52:47;98122.45;;;3.51;75.22
61361;BME280;47232;47.506;18.936;2022-12-07T02:55:15;98121.70;;;3.52;75.21
61361;BME280;47232;47.506;18.936;2022-12-07T02:58:18;98116.20;;;3.52;75.23
61361;BME280;47232;47.506;18.936;2022-12-07T03:00:54;98121.27;;;3.52;75.27
61361;BME280;47232;47.506;18.936;2022-12-07T03:03:25;98119.36;;;3.51;75.25
61361;BME280;47232;47.506;18.936;2022-12-07T03:06:29;98112.23;;;3.49;75.28
61361;BME280;47232;47.506;18.936;2022-12-07T03:09:10;98110.52;;;3.50;75.39
61361;BME280;47232;47.506;18.936;2022-12-07T03:11:48;98109.83;;;3.53;75.50
61361;BME280;47232;47.506;18.936;2022-12-07T03:14:21;98107.68;;;3.57;75.39
61361;BME280;47232;47.506;18.936;2022-12-07T03:17:02;98103.63;;;3.63;75.49
61361;BME280;47232;47.506;18.936;2022-12-07T03:19:31;98101.01;;;3.68;75.54
61361;BME280;47232;47.506;18.936;2022-12-07T03:22:10;98102.70;;;3.73;75.56
61361;BME280;47232;47.506;18.936;2022-12-07T03:24:43;98098.11;;;3.76;75.59
61361;BME280;47232;47.506;18.936;2022-12-07T03:27:20;98098.88;;;3.77;75.55
61361;BME280;47232;47.506;18.936;2022-12-07T03:30:02;98098.48;;;3.78;75.60
61361;BME280;47232;47.506;18.936;2022-12-07T03:32:36;98096.38;;;3.77;75.64
61361;BME280;47232;47.506;18.936;2022-12-07T03:35:07;98105.29;;;3.77;75.64
61361;BME280;47232;47.506;18.936;2022-12-07T03:37:41;98110.55;;;3.77;75.59
61361;BME280;47232;47.506;18.936;2022-12-07T03:42:38;98113.98;;;3.74;75.62
61361;BME280;47232;47.506;18.936;2022-12-07T03:45:04;98118.52;;;3.73;75.78
61361;BME280;47232;47.506;18.936;2022-12-07T03:47:36;98118.83;;;3.73;75.75
61361;BME280;47232;47.506;18.936;2022-12-07T03:50:34;98118.13;;;3.76;75.88
61361;BME280;47232;47.506;18.936;2022-12-07T03:53:21;98121.95;;;3.80;76.22
61361;BME280;47232;47.506;18.936;2022-12-07T03:55:49;98121.89;;;3.85;76.03
61361;BME280;47232;47.506;18.936;2022-12-07T03:58:20;98121.59;;;3.90;76.20
61361;BME280;47232;47.506;18.936;2022-12-07T04:00:48;98116.10;;;3.95;76.06
61361;BME280;47232;47.506;18.936;2022-12-07T04:03:14;98112.52;;;3.99;76.22
61361;BME280;47232;47.506;18.936;2022-12-07T04:05:40;98113.03;;;4.01;76.20
61361;BME280;47232;47.506;18.936;2022-12-07T04:08:06;98111.55;;;4.02;76.18
61361;BME280;47232;47.506;18.936;2022-12-07T04:10:32;98116.23;;;4.03;76.16
61361;BME280;47232;47.506;18.936;2022-12-07T04:12:58;98119.75;;;4.02;76.14
61361;BME280;47232;47.506;18.936;2022-12-07T04:15:23;98122.47;;;4.02;76.14
61361;BME280;47232;47.506;18.936;2022-12-07T04:17:48;98124.28;;;4.00;76.19
61361;BME280;47232;47.506;18.936;2022-12-07T04:20:14;98123.28;;;3.97;76.11
61361;BME280;47232;47.506;18.936;2022-12-07T04:22:40;98126.43;;;3.97;76.27
61361;BME280;47232;47.506;18.936;2022-12-07T04:25:05;98129.29;;;4.00;76.19
61361;BME280;47232;47.506;18.936;2022-12-07T04:27:31;98128.73;;;4.04;76.32
61361;BME280;47232;47.506;18.936;2022-12-07T04:29:56;98125.32;;;4.07;76.26
61361;BME280;47232;47.506;18.936;2022-12-07T04:32:23;98121.40;;;4.11;76.27
61361;BME280;47232;47.506;18.936;2022-12-07T04:34:48;98120.23;;;4.14;76.16
61361;BME280;47232;47.506;18.936;2022-12-07T04:37:14;98117.55;;;4.17;76.18
61361;BME280;47232;47.506;18.936;2022-12-07T04:39:39;98116.53;;;4.19;76.15
61361;BME280;47232;47.506;18.936;2022-12-07T04:42:05;98118.66;;;4.19;75.96
61361;BME280;47232;47.506;18.936;2022-12-07T04:44:31;98127.45;;;4.18;76.07
61361;BME280;47232;47.506;18.936;2022-12-07T04:46:57;98130.81;;;4.17;76.04
61361;BME280;47232;47.506;18.936;2022-12-07T04:49:23;98130.39;;;4.16;75.94
61361;BME280;47232;47.506;18.936;2022-12-07T04:51:49;98135.95;;;4.13;75.71
61361;BME280;47232;47.506;18.936;2022-12-07T04:54:15;98135.91;;;4.10;75.80
61361;BME280;47232;47.506;18.936;2022-12-07T04:56:41;98130.98;;;4.06;75.77
61361;BME280;47232;47.506;18.936;2022-12-07T04:59:07;98130.22;;;4.04;75.94
61361;BME280;47232;47.506;18.936;2022-12-07T05:01:34;98130.44;;;4.04;75.94
61361;BME280;47232;47.506;18.936;2022-12-07T05:04:00;98124.52;;;4.07;75.96
61361;BME280;47232;47.506;18.936;2022-12-07T05:06:26;98123.17;;;4.11;76.14
61361;BME280;47232;47.506;18.936;2022-12-07T05:08:51;98120.55;;;4.13;76.03
61361;BME280;47232;47.506;18.936;2022-12-07T05:11:17;98123.89;;;4.16;76.04
61361;BME280;47232;47.506;18.936;2022-12-07T05:14:07;98127.03;;;4.18;76.09
61361;BME280;47232;47.506;18.936;2022-12-07T05:16:35;98116.53;;;4.18;75.89
61361;BME280;47232;47.506;18.936;2022-12-07T05:19:01;98116.33;;;4.16;76.03
61361;BME280;47232;47.506;18.936;2022-12-07T05:21:26;98113.73;;;4.14;75.89
61361;BME280;47232;47.506;18.936;2022-12-07T05:23:52;98110.75;;;4.11;75.81
61361;BME280;47232;47.506;18.936;2022-12-07T05:26:20;98110.66;;;4.08;75.83
61361;BME280;47232;47.506;18.936;2022-12-07T05:28:50;98108.97;;;4.05;75.90
61361;BME280;47232;47.506;18.936;2022-12-07T05:31:16;98115.33;;;4.02;75.90
61361;BME280;47232;47.506;18.936;2022-12-07T05:33:42;98117.41;;;4.01;76.08
61361;BME280;47232;47.506;18.936;2022-12-07T05:36:07;98116.16;;;4.04;76.11
61361;BME280;47232;47.506;18.936;2022-12-07T05:38:33;98115.69;;;4.06;76.14
61361;BME280;47232;47.506;18.936;2022-12-07T05:41:06;98116.63;;;4.08;76.14
61361;BME280;47232;47.506;18.936;2022-12-07T05:43:32;98115.02;;;4.11;76.31
61361;BME280;47232;47.506;18.936;2022-12-07T05:45:58;98116.13;;;4.14;76.25
61361;BME280;47232;47.506;18.936;2022-12-07T05:48:24;98113.23;;;4.18;76.07
61361;BME280;47232;47.506;18.936;2022-12-07T05:50:51;98114.92;;;4.20;76.15
61361;BME280;47232;47.506;18.936;2022-12-07T05:53:16;98113.81;;;4.20;76.11
61361;BME280;47232;47.506;18.936;2022-12-07T05:55:43;98115.94;;;4.19;76.16
61361;BME280;47232;47.506;18.936;2022-12-07T05:58:09;98123.41;;;4.17;75.96
61361;BME280;47232;47.506;18.936;2022-12-07T06:00:55;98119.33;;;4.13;76.05
61361;BME280;47232;47.506;18.936;2022-12-07T06:03:23;98117.01;;;4.07;76.00
61361;BME280;47232;47.506;18.936;2022-12-07T06:05:48;98121.27;;;4.04;76.02
61361;BME280;47232;47.506;18.936;2022-12-07T06:08:17;98124.49;;;4.01;76.03
61361;BME280;47232;47.506;18.936;2022-12-07T06:10:43;98123.77;;;3.98;76.13
61361;BME280;47232;47.506;18.936;2022-12-07T06:13:08;98128.33;;;4.01;76.26
61361;BME280;47232;47.506;18.936;2022-12-07T06:15:37;98119.16;;;4.03;76.31
61361;BME280;47232;47.506;18.936;2022-12-07T06:18:03;98120.52;;;4.07;76.50
61361;BME280;47232;47.506;18.936;2022-12-07T06:20:28;98123.70;;;4.12;76.49
61361;BME280;47232;47.506;18.936;2022-12-07T06:22:54;98124.48;;;4.16;76.34
61361;BME280;47232;47.506;18.936;2022-12-07T06:25:19;98124.15;;;4.19;76.37
61361;BME280;47232;47.506;18.936;2022-12-07T06:27:45;98117.48;;;4.22;76.44
61361;BME280;47232;47.506;18.936;2022-12-07T06:30:10;98118.74;;;4.23;76.48
61361;BME280;47232;47.506;18.936;2022-12-07T06:32:36;98124.83;;;4.24;76.18
61361;BME280;47232;47.506;18.936;2022-12-07T06:35:03;98125.14;;;4.24;76.34
61361;BME280;47232;47.506;18.936;2022-12-07T06:37:30;98123.65;;;4.23;76.20
61361;BME280;47232;47.506;18.936;2022-12-07T06:39:56;98125.64;;;4.21;76.24
61361;BME280;47232;47.506;18.936;2022-12-07T06:42:22;98132.89;;;4.18;76.21
61361;BME280;47232;47.506;18.936;2022-12-07T06:44:47;98135.63;;;4.14;76.28
61361;BME280;47232;47.506;18.936;2022-12-07T06:47:13;98139.31;;;4.11;76.43
61361;BME280;47232;47.506;18.936;2022-12-07T06:49:38;98138.56;;;4.11;76.43
61361;BME280;47232;47.506;18.936;2022-12-07T06:52:04;98139.42;;;4.12;76.42
61361;BME280;47232;47.506;18.936;2022-12-07T06:54:34;98143.23;;;4.16;76.58
61361;BME280;47232;47.506;18.936;2022-12-07T06:56:59;98141.19;;;4.22;76.54
61361;BME280;47232;47.506;18.936;2022-12-07T06:59:25;98140.96;;;4.28;76.63
61361;BME280;47232;47.506;18.936;2022-12-07T07:01:53;98143.97;;;4.31;76.47
61361;BME280;47232;47.506;18.936;2022-12-07T07:04:18;98140.77;;;4.34;76.58
61361;BME280;47232;47.506;18.936;2022-12-07T07:06:43;98142.41;;;4.36;76.47
61361;BME280;47232;47.506;18.936;2022-12-07T07:09:09;98144.59;;;4.38;76.64
61361;BME280;47232;47.506;18.936;2022-12-07T07:11:34;98145.37;;;4.39;76.56
61361;BME280;47232;47.506;18.936;2022-12-07T07:14:00;98140.36;;;4.39;76.43
61361;BME280;47232;47.506;18.936;2022-12-07T07:16:28;98139.61;;;4.40;76.72
61361;BME280;47232;47.506;18.936;2022-12-07T07:18:55;98145.20;;;4.39;76.65
61361;BME280;47232;47.506;18.936;2022-12-07T07:21:20;98145.11;;;4.39;76.54
61361;BME280;47232;47.506;18.936;2022-12-07T07:23:46;98146.23;;;4.38;76.45
61361;BME280;47232;47.506;18.936;2022-12-07T07:26:11;98150.33;;;4.40;76.51
61361;BME280;47232;47.506;18.936;2022-12-07T07:28:37;98147.86;;;4.44;76.47
61361;BME280;47232;47.506;18.936;2022-12-07T07:31:02;98151.84;;;4.48;76.57
61361;BME280;47232;47.506;18.936;2022-12-07T07:33:30;98152.36;;;4.51;76.69
61361;BME280;47232;47.506;18.936;2022-12-07T07:35:56;98144.98;;;4.55;76.71
61361;BME280;47232;47.506;18.936;2022-12-07T07:38:21;98146.98;;;4.58;76.75
61361;BME280;47232;47.506;18.936;2022-12-07T07:40:49;98143.87;;;4.61;76.68
61361;BME280;47232;47.506;18.936;2022-12-07T07:43:15;98139.74;;;4.65;76.47
61361;BME280;47232;47.506;18.936;2022-12-07T07:45:40;98141.48;;;4.67;76.37
61361;BME280;47232;47.506;18.936;2022-12-07T07:48:06;98144.64;;;4.67;76.12
61361;BME280;47232;47.506;18.936;2022-12-07T07:50:31;98144.88;;;4.65;76.05
61361;BME280;47232;47.506;18.936;2022-12-07T07:52:57;98138.47;;;4.65;76.25
61361;BME280;47232;47.506;18.936;2022-12-07T07:55:23;98140.05;;;4.66;76.30
61361;BME280;47232;47.506;18.936;2022-12-07T07:57:48;98138.13;;;4.67;76.42
61361;BME280;47232;47.506;18.936;2022-12-07T08:00:15;98139.48;;;4.70;76.35
61361;BME280;47232;47.506;18.936;2022-12-07T08:02:42;98144.06;;;4.76;76.46
61361;BME280;47232;47.506;18.936;2022-12-07T08:05:11;98147.37;;;4.83;76.09
61361;BME280;47232;47.506;18.936;2022-12-07T08:07:37;98152.54;;;4.90;76.13
61361;BME280;47232;47.506;18.936;2022-12-07T08:10:03;98151.85;;;4.98;76.09
61361;BME280;47232;47.506;18.936;2022-12-07T08:12:29;98155.75;;;5.05;76.06
61361;BME280;47232;47.506;18.936;2022-12-07T08:14:54;98161.52;;;5.11;75.97
61361;BME280;47232;47.506;18.936;2022-12-07T08:17:20;98162.56;;;5.15;75.69
61361;BME280;47232;47.506;18.936;2022-12-07T08:19:45;98158.70;;;5.18;75.89
61361;BME280;47232;47.506;18.936;2022-12-07T08:22:10;98157.11;;;5.22;75.52
61361;BME280;47232;47.506;18.936;2022-12-07T08:24:36;98157.09;;;5.25;75.73
61361;BME280;47232;47.506;18.936;2022-12-07T08:27:02;98164.71;;;5.27;75.64
61361;BME280;47232;47.506;18.936;2022-12-07T08:29:28;98166.34;;;5.29;75.48
61361;BME280;47232;47.506;18.936;2022-12-07T08:31:53;98168.52;;;5.32;75.81
61361;BME280;47232;47.506;18.936;2022-12-07T08:34:19;98169.98;;;5.29;75.22
61361;BME280;47232;47.506;18.936;2022-12-07T08:36:44;98172.69;;;5.29;75.41
61361;BME280;47232;47.506;18.936;2022-12-07T08:39:10;98173.44;;;5.35;75.46
61361;BME280;47232;47.506;18.936;2022-12-07T08:41:35;98173.02;;;5.43;75.52
61361;BME280;47232;47.506;18.936;2022-12-07T08:44:01;98177.19;;;5.53;75.36
61361;BME280;47232;47.506;18.936;2022-12-07T08:46:34;98172.14;;;5.62;75.21
61361;BME280;47232;47.506;18.936;2022-12-07T08:49:07;98174.17;;;5.68;74.97
61361;BME280;47232;47.506;18.936;2022-12-07T08:51:34;98170.14;;;5.70;74.50
61361;BME280;47232;47.506;18.936;2022-12-07T08:54:02;98170.13;;;5.73;74.66
61361;BME280;47232;47.506;18.936;2022-12-07T08:56:29;98172.11;;;5.82;74.48
61361;BME280;47232;47.506;18.936;2022-12-07T08:58:54;98172.39;;;5.81;73.99
61361;BME280;47232;47.506;18.936;2022-12-07T09:01:20;98172.39;;;5.81;74.20
61361;BME280;47232;47.506;18.936;2022-12-07T09:03:47;98169.09;;;5.86;74.36
61361;BME280;47232;47.506;18.936;2022-12-07T09:06:13;98169.66;;;5.87;74.54
61361;BME280;47232;47.506;18.936;2022-12-07T09:08:42;98168.42;;;5.87;74.12
61361;BME280;47232;47.506;18.936;2022-12-07T09:11:08;98168.40;;;5.88;74.10
61361;BME280;47232;47.506;18.936;2022-12-07T09:13:33;98167.48;;;5.91;74.19
61361;BME280;47232;47.506;18.936;2022-12-07T09:15:59;98168.33;;;5.94;74.14
61361;BME280;47232;47.506;18.936;2022-12-07T09:18:24;98161.98;;;5.98;74.20
61361;BME280;47232;47.506;18.936;2022-12-07T09:20:50;98157.91;;;6.04;73.69
61361;BME280;47232;47.506;18.936;2022-12-07T09:23:15;98163.95;;;6.09;73.61
61361;BME280;47232;47.506;18.936;2022-12-07T09:25:41;98154.96;;;6.08;73.19
61361;BME280;47232;47.506;18.936;2022-12-07T09:28:06;98152.55;;;6.16;73.23
61361;BME280;47232;47.506;18.936;2022-12-07T09:30:32;98154.41;;;6.20;73.45
61361;BME280;47232;47.506;18.936;2022-12-07T09:32:57;98147.34;;;6.34;73.10
61361;BME280;47232;47.506;18.936;2022-12-07T09:35:24;98143.98;;;6.46;73.16
61361;BME280;47232;47.506;18.936;2022-12-07T09:37:49;98146.21;;;6.70;72.51
61361;BME280;47232;47.506;18.936;2022-12-07T09:40:16;98139.70;;;6.89;72.18
61361;BME280;47232;47.506;18.936;2022-12-07T09:42:47;98141.98;;;7.00;72.11
61361;BME280;47232;47.506;18.936;2022-12-07T09:45:26;98144.70;;;7.04;72.06
61361;BME280;47232;47.506;18.936;2022-12-07T09:47:52;98143.98;;;7.05;71.17
61361;BME280;47232;47.506;18.936;2022-12-07T09:50:22;98137.75;;;7.06;70.99
61361;BME280;47232;47.506;18.936;2022-12-07T09:52:49;98132.61;;;7.07;70.77
61361;BME280;47232;47.506;18.936;2022-12-07T09:55:21;98131.00;;;7.13;70.55
61361;BME280;47232;47.506;18.936;2022-12-07T09:57:48;98134.52;;;7.18;70.35
61361;BME280;47232;47.506;18.936;2022-12-07T10:00:19;98138.97;;;7.18;69.94
61361;BME280;47232;47.506;18.936;2022-12-07T10:02:56;98140.48;;;7.17;70.10
61361;BME280;47232;47.506;18.936;2022-12-07T10:07:51;98138.95;;;7.09;68.64
61361;BME280;47232;47.506;18.936;2022-12-07T10:10:30;98139.88;;;7.04;68.38
61361;BME280;47232;47.506;18.936;2022-12-07T10:12:59;98134.77;;;7.01;68.72
61361;BME280;47232;47.506;18.936;2022-12-07T10:23:36;98124.05;;;6.92;68.26
61361;BME280;47232;47.506;18.936;2022-12-07T10:26:26;98124.10;;;6.93;68.74
61361;BME280;47232;47.506;18.936;2022-12-07T10:28:53;98128.28;;;7.00;68.45
61361;BME280;47232;47.506;18.936;2022-12-07T10:31:22;98126.27;;;6.99;67.70
61361;BME280;47232;47.506;18.936;2022-12-07T10:33:56;98123.05;;;6.96;67.77
61361;BME280;47232;47.506;18.936;2022-12-07T10:36:34;98117.39;;;6.95;67.56
61361;BME280;47232;47.506;18.936;2022-12-07T10:39:15;98114.55;;;6.94;66.96
61361;BME280;47232;47.506;18.936;2022-12-07T10:44:32;98125.61;;;6.99;67.05
61361;BME280;47232;47.506;18.936;2022-12-07T10:52:43;98121.96;;;6.89;66.42
61361;BME280;47232;47.506;18.936;2022-12-07T11:00:57;98113.31;;;6.87;66.56
61361;BME280;47232;47.506;18.936;2022-12-07T11:19:49;98105.73;;;7.00;66.61
61361;BME280;47232;47.506;18.936;2022-12-07T11:25:17;98107.70;;;7.07;65.93
61361;BME280;47232;47.506;18.936;2022-12-07T11:30:47;98102.77;;;6.94;65.66
61361;BME280;47232;47.506;18.936;2022-12-07T11:33:45;98098.48;;;6.85;65.74
61361;BME280;47232;47.506;18.936;2022-12-07T11:39:02;98098.03;;;6.79;66.06
61361;BME280;47232;47.506;18.936;2022-12-07T11:41:33;98101.28;;;6.77;66.30
61361;BME280;47232;47.506;18.936;2022-12-07T11:44:22;98105.61;;;6.73;66.35
61361;BME280;47232;47.506;18.936;2022-12-07T11:47:07;98112.39;;;6.67;66.54
61361;BME280;47232;47.506;18.936;2022-12-07T11:50:07;98114.36;;;6.60;66.23
61361;BME280;47232;47.506;18.936;2022-12-07T11:52:49;98105.10;;;6.57;66.31
61361;BME280;47232;47.506;18.936;2022-12-07T11:55:46;98103.84;;;6.62;66.31
61361;BME280;47232;47.506;18.936;2022-12-07T11:58:35;98095.04;;;6.72;65.91
61361;BME280;47232;47.506;18.936;2022-12-07T12:06:44;98077.77;;;8.09;64.63
61361;BME280;47232;47.506;18.936;2022-12-07T12:09:22;98070.19;;;8.46;64.28
61361;BME280;47232;47.506;18.936;2022-12-07T12:14:46;98066.05;;;9.25;61.74
61361;BME280;47232;47.506;18.936;2022-12-07T12:22:55;98054.02;;;9.77;58.92
61361;BME280;47232;47.506;18.936;2022-12-07T12:25:42;98054.48;;;9.92;58.17
61361;BME280;47232;47.506;18.936;2022-12-07T12:31:14;98049.27;;;10.45;57.72
61361;BME280;47232;47.506;18.936;2022-12-07T12:33:45;98049.50;;;10.58;56.58
61361;BME280;47232;47.506;18.936;2022-12-07T12:49:36;98043.90;;;9.32;56.04
61361;BME280;47232;47.506;18.936;2022-12-07T12:57:27;98044.52;;;8.52;57.70
61361;BME280;47232;47.506;18.936;2022-12-07T13:02:26;98050.55;;;8.17;58.42
61361;BME280;47232;47.506;18.936;2022-12-07T13:15:47;98058.64;;;7.39;59.01
61361;BME280;47232;47.506;18.936;2022-12-07T13:18:35;98057.63;;;7.24;59.37
61361;BME280;47232;47.506;18.936;2022-12-07T13:28:39;98062.42;;;7.04;60.51
61361;BME280;47232;47.506;18.936;2022-12-07T13:33:45;98059.04;;;7.01;60.59
61361;BME280;47232;47.506;18.936;2022-12-07T13:36:24;98063.96;;;6.91;60.55
61361;BME280;47232;47.506;18.936;2022-12-07T13:38:56;98060.65;;;6.81;60.81
61361;BME280;47232;47.506;18.936;2022-12-07T13:41:27;98068.45;;;6.75;61.28
61361;BME280;47232;47.506;18.936;2022-12-07T13:49:28;98076.13;;;6.55;61.72
61361;BME280;47232;47.506;18.936;2022-12-07T13:51:55;98078.27;;;6.49;62.06
61361;BME280;47232;47.506;18.936;2022-12-07T13:54:32;98078.61;;;6.42;62.22
61361;BME280;47232;47.506;18.936;2022-12-07T13:56:58;98081.11;;;6.36;62.13
61361;BME280;47232;47.506;18.936;2022-12-07T13:59:25;98086.86;;;6.33;62.43
61361;BME280;47232;47.506;18.936;2022-12-07T14:01:53;98085.41;;;6.30;62.50
61361;BME280;47232;47.506;18.936;2022-12-07T14:06:49;98078.33;;;6.29;62.95
61361;BME280;47232;47.506;18.936;2022-12-07T14:09:21;98078.53;;;6.33;62.96
61361;BME280;47232;47.506;18.936;2022-12-07T14:11:48;98074.85;;;6.36;63.14
61361;BME280;47232;47.506;18.936;2022-12-07T14:14:19;98080.09;;;6.41;63.22
61361;BME280;47232;47.506;18.936;2022-12-07T14:16:58;98078.27;;;6.44;63.35
61361;BME280;47232;47.506;18.936;2022-12-07T14:19:55;98076.15;;;6.47;63.22
61361;BME280;47232;47.506;18.936;2022-12-07T14:22:30;98080.60;;;6.50;63.39
61361;BME280;47232;47.506;18.936;2022-12-07T14:25:14;98078.80;;;6.51;63.12
61361;BME280;47232;47.506;18.936;2022-12-07T14:27:57;98077.92;;;6.53;62.96
61361;BME280;47232;47.506;18.936;2022-12-07T14:30:29;98075.48;;;6.52;62.71
61361;BME280;47232;47.506;18.936;2022-12-07T14:32:58;98077.86;;;6.50;62.90
61361;BME280;47232;47.506;18.936;2022-12-07T14:35:25;98074.32;;;6.47;63.11
61361;BME280;47232;47.506;18.936;2022-12-07T14:37:51;98075.50;;;6.42;63.13
61361;BME280;47232;47.506;18.936;2022-12-07T14:40:27;98077.89;;;6.36;63.19
61361;BME280;47232;47.506;18.936;2022-12-07T14:43:06;98082.06;;;6.28;63.39
61361;BME280;47232;47.506;18.936;2022-12-07T14:45:34;98089.67;;;6.19;63.47
61361;BME280;47232;47.506;18.936;2022-12-07T14:47:59;98090.36;;;6.12;63.49
61361;BME280;47232;47.506;18.936;2022-12-07T14:50:25;98089.20;;;6.02;63.75
61361;BME280;47232;47.506;18.936;2022-12-07T14:52:59;98087.25;;;5.95;63.87
61361;BME280;47232;47.506;18.936;2022-12-07T14:55:29;98094.92;;;5.91;64.12
61361;BME280;47232;47.506;18.936;2022-12-07T14:57:56;98097.59;;;5.80;64.30
61361;BME280;47232;47.506;18.936;2022-12-07T15:00:23;98097.05;;;5.71;64.26
61361;BME280;47232;47.506;18.936;2022-12-07T15:02:50;98099.66;;;5.61;64.44
61361;BME280;47232;47.506;18.936;2022-12-07T15:05:16;98103.60;;;5.53;64.64
61361;BME280;47232;47.506;18.936;2022-12-07T15:07:43;98102.13;;;5.46;64.53
61361;BME280;47232;47.506;18.936;2022-12-07T15:10:16;98102.84;;;5.39;64.68
61361;BME280;47232;47.506;18.936;2022-12-07T15:12:43;98101.73;;;5.31;64.99
61361;BME280;47232;47.506;18.936;2022-12-07T15:15:09;98104.57;;;5.24;64.94
61361;BME280;47232;47.506;18.936;2022-12-07T15:17:34;98104.52;;;5.18;64.98
61361;BME280;47232;47.506;18.936;2022-12-07T15:20:00;98102.89;;;5.14;65.03
61361;BME280;47232;47.506;18.936;2022-12-07T15:22:25;98105.41;;;5.13;65.28
61361;BME280;47232;47.506;18.936;2022-12-07T15:24:51;98103.23;;;5.12;65.19
61361;BME280;47232;47.506;18.936;2022-12-07T15:27:16;98104.41;;;5.11;65.28
61361;BME280;47232;47.506;18.936;2022-12-07T15:29:42;98108.70;;;5.09;65.26
61361;BME280;47232;47.506;18.936;2022-12-07T15:32:07;98114.06;;;5.07;65.40
61361;BME280;47232;47.506;18.936;2022-12-07T15:34:33;98116.21;;;5.04;65.20
61361;BME280;47232;47.506;18.936;2022-12-07T15:37:01;98115.54;;;5.01;65.37